Westby, North Dakota
Current Conditions -  °F | °C
As of 11:52 PM on Wednesday 22 Oct 2014 (Local Time) from KISN Reporting Station
Clear Clear  
Wind Chill: 42°   Ceiling: Unl
Heat Index: 44°   Visibility: 10mi
Dew Point: 32°   Wind: 5mph
Humidity: 63%   Direction: 220°SW
Pressure: 29.87"   Gusts: NA
Location:  48.5901°N, 103.922°W
Report Text: KISN 230452Z AUTO 22004KT 10SM CLR 07/00 A2987 RMK AO2 SLP123 T00670000
Loading
Personal Weather Stations






























Interactive Weather Map New forecast layout! Learn more

10-Day Weather Forecast

Advertisements
Track Severe Weather on mobile